Time;durP1;ratioP1;P1;durP2;ratioP2;P2;SDS_P1;SDS_P2;PMS_P1;PMS_P2;Temp;Humidity;BMP_temperature;BMP_pressure;BME280_temperature;BME280_humidity;BME280_pressure;Samples;Min_cycle;Max_cycle;Signal;HPM_P1;HPM_P2
2024/01/03 00:00:56;;;;;;;0.10;0.10;;;8.70;90.80;;;;;;5068218;28;20481;-70
2024/01/03 00:03:25;;;;;;;0.52;0.52;;;8.70;90.00;;;;;;5070700;28;20076;-70
2024/01/03 00:05:51;;;;;;;0.08;0.08;;;8.70;90.00;;;;;;5069555;28;20553;-70
2024/01/03 00:08:29;;;;;;;0.00;0.00;;;8.70;89.90;;;;;;5069836;28;20358;-71
2024/01/03 00:10:56;;;;;;;0.00;0.00;;;8.70;89.70;;;;;;5067072;28;20055;-70
2024/01/03 00:13:31;;;;;;;0.00;0.00;;;8.60;89.90;;;;;;5068461;28;20036;-70
2024/01/03 00:16:00;;;;;;;0.00;0.00;;;8.70;89.70;;;;;;5072116;28;20052;-70
2024/01/03 00:18:32;;;;;;;0.00;0.00;;;8.60;89.50;;;;;;5073337;28;20068;-70
2024/01/03 00:20:58;;;;;;;0.00;0.00;;;8.60;89.70;;;;;;5070065;28;20437;-70
2024/01/03 00:23:38;;;;;;;0.00;0.00;;;8.70;89.50;;;;;;5068320;28;20044;-70
2024/01/03 00:26:06;;;;;;;0.00;0.00;;;8.80;88.80;;;;;;5066180;28;20056;-70
2024/01/03 00:28:32;;;;;;;0.00;0.00;;;8.90;88.90;;;;;;5069817;28;20041;-70
2024/01/03 00:30:58;;;;;;;0.00;0.00;;;8.70;89.10;;;;;;5067770;28;20041;-70
2024/01/03 00:33:24;;;;;;;0.00;0.00;;;8.70;89.20;;;;;;5069378;28;20129;-70
2024/01/03 00:35:51;;;;;;;0.05;0.05;;;8.60;89.60;;;;;;5071930;28;20082;-70
2024/01/03 00:38:17;;;;;;;0.10;0.10;;;8.70;89.60;;;;;;5067403;28;20438;-70
2024/01/03 00:40:57;;;;;;;0.10;0.10;;;8.70;89.80;;;;;;5066066;28;20044;-69
2024/01/03 00:43:23;;;;;;;1.88;1.73;;;8.70;89.70;;;;;;5068779;28;20040;-69
2024/01/03 00:45:49;;;;;;;0.05;0.05;;;8.60;89.90;;;;;;5069054;28;20113;-69
2024/01/03 00:48:18;;;;;;;0.00;0.00;;;8.80;89.80;;;;;;5065655;28;20041;-69
2024/01/03 00:50:44;;;;;;;0.55;0.55;;;8.70;89.50;;;;;;5064421;28;20500;-70
2024/01/03 00:53:12;;;;;;;0.00;0.00;;;8.80;89.60;;;;;;5065672;28;20127;-69
2024/01/03 00:55:39;;;;;;;0.32;0.32;;;8.80;89.40;;;;;;5072494;28;20511;-69
2024/01/03 00:58:04;;;;;;;0.10;0.10;;;8.80;89.30;;;;;;5067546;28;20106;-69
2024/01/03 01:00:31;;;;;;;0.10;0.10;;;8.80;89.60;;;;;;5068015;28;20032;-70
2024/01/03 01:02:56;;;;;;;0.00;0.00;;;8.60;89.80;;;;;;5065440;28;20079;-69
2024/01/03 01:05:23;;;;;;;0.47;0.47;;;8.70;89.80;;;;;;5064268;28;20123;-70
2024/01/03 01:07:48;;;;;;;0.00;0.00;;;8.70;89.70;;;;;;5077610;28;20670;-69
2024/01/03 01:10:14;;;;;;;0.00;0.00;;;8.70;90.00;;;;;;5068777;28;20123;-69
2024/01/03 01:12:39;;;;;;;0.20;0.17;;;8.70;89.60;;;;;;5068694;28;20491;-69
2024/01/03 01:15:05;;;;;;;0.00;0.00;;;8.70;89.40;;;;;;5070751;28;20045;-70
2024/01/03 01:17:31;;;;;;;0.20;0.20;;;8.80;89.20;;;;;;5080895;28;20631;-70
2024/01/03 01:19:56;;;;;;;0.00;0.00;;;8.70;89.00;;;;;;5079471;28;20202;-69
2024/01/03 01:22:23;;;;;;;0.00;0.00;;;8.70;89.30;;;;;;5071579;28;20627;-70
2024/01/03 01:24:49;;;;;;;2.95;2.10;;;8.80;88.80;;;;;;5068717;28;20125;-69
2024/01/03 01:27:16;;;;;;;0.00;0.00;;;8.80;88.90;;;;;;5068322;28;20487;-70
2024/01/03 01:29:41;;;;;;;0.00;0.00;;;8.90;89.10;;;;;;5067683;28;20088;-69
2024/01/03 01:32:07;;;;;;;0.00;0.00;;;8.80;88.90;;;;;;5070719;28;20111;-70
2024/01/03 01:34:32;;;;;;;2.33;2.13;;;8.90;88.90;;;;;;5073989;28;20043;-70
2024/01/03 01:36:58;;;;;;;1.17;1.17;;;8.80;89.10;;;;;;5071829;28;20040;-70
2024/01/03 01:39:23;;;;;;;0.00;0.00;;;8.80;89.10;;;;;;5076014;22;20049;-70
2024/01/03 01:41:49;;;;;;;0.08;0.08;;;8.70;89.40;;;;;;5046447;28;20795;-70
2024/01/03 01:44:15;;;;;;;0.00;0.00;;;8.80;89.30;;;;;;5042222;28;20076;-70
2024/01/03 01:46:42;;;;;;;0.00;0.00;;;8.70;89.30;;;;;;5047152;28;20044;-69
2024/01/03 01:49:09;;;;;;;1.00;1.00;;;8.80;89.30;;;;;;5047238;28;20035;-70
2024/01/03 01:51:36;;;;;;;0.00;0.00;;;8.80;89.30;;;;;;5047951;28;20040;-69
2024/01/03 01:54:02;;;;;;;0.00;0.00;;;8.80;89.10;;;;;;5065358;28;20043;-69
2024/01/03 01:56:29;;;;;;;2.50;0.95;;;8.90;88.80;;;;;;5048825;28;20123;-70
2024/01/03 01:58:56;;;;;;;0.00;0.00;;;8.90;88.80;;;;;;5047885;28;20052;-70
2024/01/03 02:01:22;;;;;;;0.25;0.25;;;8.80;89.00;;;;;;5047502;28;20128;-69
2024/01/03 02:03:50;;;;;;;0.00;0.00;;;8.90;89.00;;;;;;5047698;28;20159;-70
2024/01/03 02:06:16;;;;;;;0.10;0.10;;;9.00;88.70;;;;;;5054756;28;20106;-69
2024/01/03 02:08:41;;;;;;;0.10;0.10;;;9.10;88.20;;;;;;5048360;28;20072;-70
2024/01/03 02:11:07;;;;;;;0.10;0.10;;;9.00;88.10;;;;;;5047333;28;20513;-69
2024/01/03 02:13:33;;;;;;;0.98;0.77;;;9.00;88.00;;;;;;5047161;28;20079;-69
2024/01/03 02:15:59;;;;;;;0.00;0.00;;;9.00;88.20;;;;;;5054166;28;20517;-69
2024/01/03 02:18:26;;;;;;;0.00;0.00;;;9.00;88.50;;;;;;5049223;28;20041;-69
2024/01/03 02:20:55;;;;;;;0.00;0.00;;;9.00;88.30;;;;;;5045228;28;20120;-70
2024/01/03 02:23:21;;;;;;;0.75;0.75;;;9.00;87.70;;;;;;5060570;28;20131;-69
2024/01/03 02:25:46;;;;;;;0.08;0.08;;;9.00;87.30;;;;;;5065206;28;20243;-69
2024/01/03 02:28:12;;;;;;;0.00;0.00;;;9.00;87.50;;;;;;5051075;28;20045;-69
2024/01/03 02:30:41;;;;;;;0.80;0.73;;;9.00;87.40;;;;;;5058846;28;20048;-70
2024/01/03 02:33:07;;;;;;;0.40;0.40;;;9.10;87.20;;;;;;5047877;28;20072;-70
2024/01/03 02:35:33;;;;;;;0.00;0.00;;;9.10;87.00;;;;;;5059498;28;20040;-70
2024/01/03 02:37:59;;;;;;;0.38;0.38;;;9.00;87.30;;;;;;5052504;28;20093;-70
2024/01/03 02:40:24;;;;;;;5.57;2.97;;;9.10;87.30;;;;;;5061435;28;20053;-70
2024/01/03 02:42:50;;;;;;;0.05;0.05;;;9.10;87.40;;;;;;5066428;28;20052;-69
2024/01/03 02:45:16;;;;;;;0.00;0.00;;;9.10;86.90;;;;;;5066947;28;20044;-70
2024/01/03 02:47:41;;;;;;;0.10;0.10;;;9.10;87.00;;;;;;5066742;28;20045;-70
2024/01/03 02:50:07;;;;;;;0.00;0.00;;;9.10;87.10;;;;;;5066264;28;20047;-69
2024/01/03 02:52:34;;;;;;;0.00;0.00;;;9.10;87.20;;;;;;5066805;28;20040;-70
2024/01/03 02:55:00;;;;;;;1.08;1.08;;;9.20;86.90;;;;;;5064997;28;20044;-69
2024/01/03 02:57:26;;;;;;;0.00;0.00;;;9.10;87.00;;;;;;5066740;28;20088;-70
2024/01/03 02:59:52;;;;;;;2.08;1.77;;;9.10;87.40;;;;;;5065095;28;20072;-70
2024/01/03 03:02:18;;;;;;;0.73;0.73;;;9.10;87.50;;;;;;5061396;28;20111;-69
2024/01/03 03:04:44;;;;;;;0.00;0.00;;;9.10;87.40;;;;;;5058119;28;20037;-69
2024/01/03 03:07:09;;;;;;;0.10;0.10;;;9.10;87.50;;;;;;5066256;28;20041;-69
2024/01/03 03:09:35;;;;;;;1.45;1.17;;;9.20;87.30;;;;;;5066210;28;20570;-69
2024/01/03 03:12:00;;;;;;;0.75;0.75;;;9.10;87.30;;;;;;5066536;28;20048;-70
2024/01/03 03:14:26;;;;;;;0.00;0.00;;;9.20;87.40;;;;;;5065292;28;20041;-70
2024/01/03 03:16:52;;;;;;;0.00;0.00;;;9.10;87.40;;;;;;5066100;28;20047;-70
2024/01/03 03:19:17;;;;;;;0.20;0.20;;;9.20;87.90;;;;;;5066830;28;20040;-69
2024/01/03 03:21:43;;;;;;;0.00;0.00;;;9.10;88.60;;;;;;5048309;28;20048;-69
2024/01/03 03:24:09;;;;;;;0.00;0.00;;;9.10;88.80;;;;;;5065920;28;20056;-69
2024/01/03 03:26:34;;;;;;;0.00;0.00;;;9.10;88.80;;;;;;5068570;28;20033;-69
2024/01/03 03:29:00;;;;;;;0.00;0.00;;;9.10;88.90;;;;;;5069299;28;20094;-69
2024/01/03 03:31:25;;;;;;;0.00;0.00;;;9.10;88.80;;;;;;5066058;28;20079;-70
2024/01/03 03:33:51;;;;;;;0.75;0.75;;;9.10;88.90;;;;;;5067627;28;20049;-69
2024/01/03 03:36:17;;;;;;;0.00;0.00;;;9.00;89.00;;;;;;5064292;28;20052;-69
2024/01/03 03:38:43;;;;;;;0.00;0.00;;;9.10;89.10;;;;;;5069000;28;20045;-70
2024/01/03 03:41:12;;;;;;;0.00;0.00;;;9.10;88.80;;;;;;5070337;28;20060;-69
2024/01/03 03:43:39;;;;;;;0.45;0.45;;;9.00;89.00;;;;;;5050198;28;20080;-69
2024/01/03 03:46:08;;;;;;;0.10;0.10;;;9.10;88.90;;;;;;5034194;28;20491;-69
2024/01/03 03:48:34;;;;;;;0.10;0.10;;;9.10;88.90;;;;;;5070356;28;20072;-69
2024/01/03 03:51:01;;;;;;;0.00;0.00;;;9.10;88.90;;;;;;5070230;28;20145;-69
2024/01/03 03:53:26;;;;;;;0.00;0.00;;;9.10;89.00;;;;;;5068337;28;20136;-69
2024/01/03 03:55:52;;;;;;;0.00;0.00;;;9.10;88.90;;;;;;5069543;28;20481;-69
2024/01/03 03:58:17;;;;;;;0.00;0.00;;;9.10;89.10;;;;;;5069929;28;20088;-69
2024/01/03 04:00:43;;;;;;;0.00;0.00;;;9.10;89.60;;;;;;5070475;28;20111;-69
2024/01/03 04:03:08;;;;;;;1.23;1.23;;;9.00;89.90;;;;;;5070470;28;20033;-69
2024/01/03 04:05:36;;;;;;;0.00;0.00;;;9.00;90.00;;;;;;5070497;28;20032;-69
2024/01/03 04:08:02;;;;;;;0.00;0.00;;;8.90;90.10;;;;;;5070832;28;20043;-70
2024/01/03 04:10:28;;;;;;;0.03;0.03;;;9.00;90.30;;;;;;5070488;28;20159;-69
2024/01/03 04:12:55;;;;;;;0.00;0.00;;;9.00;90.40;;;;;;5070352;28;20491;-70
2024/01/03 04:15:22;;;;;;;0.00;0.00;;;9.00;90.60;;;;;;5070226;28;20059;-69
2024/01/03 04:17:47;;;;;;;0.00;0.00;;;9.10;90.50;;;;;;5069812;28;20255;-69
2024/01/03 04:20:13;;;;;;;1.25;1.17;;;9.10;90.10;;;;;;5069904;28;20127;-69
2024/01/03 04:22:42;;;;;;;0.00;0.00;;;9.10;90.20;;;;;;5059161;28;20044;-69
2024/01/03 04:25:08;;;;;;;0.00;0.00;;;9.00;90.50;;;;;;5068999;28;20094;-70
2024/01/03 04:27:33;;;;;;;0.10;0.10;;;9.00;90.60;;;;;;5069835;28;20032;-69
2024/01/03 04:29:59;;;;;;;0.00;0.00;;;9.10;90.90;;;;;;5051589;28;20044;-69
2024/01/03 04:32:25;;;;;;;0.00;0.00;;;9.00;91.30;;;;;;5069079;28;20780;-69
2024/01/03 04:34:50;;;;;;;0.10;0.10;;;9.00;91.30;;;;;;5067915;28;20040;-69
2024/01/03 04:37:16;;;;;;;5.00;2.83;;;8.90;91.50;;;;;;5067593;28;20044;-69
2024/01/03 04:39:41;;;;;;;0.00;0.00;;;8.90;91.50;;;;;;5068621;28;20125;-69
2024/01/03 04:42:07;;;;;;;0.47;0.43;;;8.90;91.30;;;;;;5068650;28;20040;-69
2024/01/03 04:44:34;;;;;;;0.00;0.00;;;8.80;91.70;;;;;;5064152;28;20048;-69
2024/01/03 04:47:00;;;;;;;0.00;0.00;;;8.80;92.30;;;;;;5068749;28;20054;-68
2024/01/03 04:49:27;;;;;;;0.10;0.10;;;8.70;92.30;;;;;;5069009;28;20527;-69
2024/01/03 04:51:53;;;;;;;0.00;0.00;;;8.60;92.60;;;;;;5069085;28;20040;-69
2024/01/03 04:54:18;;;;;;;0.05;0.05;;;8.70;92.60;;;;;;5051337;28;20395;-69
2024/01/03 04:56:44;;;;;;;0.00;0.00;;;8.70;92.70;;;;;;5069023;28;20045;-69
2024/01/03 04:59:10;;;;;;;0.47;0.47;;;8.60;92.70;;;;;;5066640;28;20043;-69
2024/01/03 05:01:35;;;;;;;0.00;0.00;;;8.60;93.10;;;;;;5067631;28;20032;-69
2024/01/03 05:04:01;;;;;;;0.00;0.00;;;8.70;93.10;;;;;;5067441;28;20123;-69
2024/01/03 05:06:27;;;;;;;0.00;0.00;;;8.60;93.20;;;;;;5068412;28;20044;-69
2024/01/03 05:08:52;;;;;;;0.08;0.08;;;8.60;93.30;;;;;;5068680;28;20095;-69
2024/01/03 05:11:18;;;;;;;0.00;0.00;;;8.60;93.40;;;;;;5055330;28;20040;-69
2024/01/03 05:13:43;;;;;;;0.38;0.38;;;8.70;93.40;;;;;;5068384;28;20131;-69
2024/01/03 05:16:09;;;;;;;0.22;0.20;;;8.60;93.30;;;;;;5068391;28;20059;-69
2024/01/03 05:18:36;;;;;;;0.00;0.00;;;8.70;93.20;;;;;;5068110;28;20111;-69
2024/01/03 05:21:02;;;;;;;0.00;0.00;;;8.90;92.80;;;;;;5067771;28;20097;-69
2024/01/03 05:23:28;;;;;;;0.00;0.00;;;8.90;92.40;;;;;;5067509;28;20094;-69
2024/01/03 05:25:53;;;;;;;0.00;0.00;;;8.90;92.10;;;;;;5068095;28;20044;-69
2024/01/03 05:28:19;;;;;;;0.77;0.77;;;9.00;91.80;;;;;;5067030;28;20835;-69
2024/01/03 05:30:44;;;;;;;0.57;0.57;;;9.10;91.70;;;;;;5067654;28;20072;-69
2024/01/03 05:33:10;;;;;;;0.08;0.08;;;9.10;91.50;;;;;;5066897;28;20116;-69
2024/01/03 05:35:36;;;;;;;0.35;0.35;;;9.10;91.40;;;;;;5067972;28;20036;-69
2024/01/03 05:38:01;;;;;;;0.00;0.00;;;9.10;91.50;;;;;;5067464;28;20090;-68
2024/01/03 05:40:27;;;;;;;0.00;0.00;;;9.10;91.70;;;;;;5067372;28;20049;-69
2024/01/03 05:42:52;;;;;;;0.60;0.60;;;9.10;91.40;;;;;;5067844;28;20044;-69
2024/01/03 05:45:18;;;;;;;0.00;0.00;;;9.10;91.30;;;;;;5067804;28;20441;-69
2024/01/03 05:47:44;;;;;;;0.08;0.08;;;9.20;91.00;;;;;;5067632;28;20036;-69
2024/01/03 05:50:09;;;;;;;0.00;0.00;;;9.20;90.90;;;;;;5067237;28;20042;-68
2024/01/03 05:52:38;;;;;;;3.85;1.75;;;9.20;90.90;;;;;;5067588;28;20044;-69
2024/01/03 05:55:06;;;;;;;0.00;0.00;;;9.20;91.00;;;;;;5066786;28;20126;-69
2024/01/03 05:57:32;;;;;;;0.50;0.50;;;9.20;90.80;;;;;;5067293;28;20048;-69
2024/01/03 05:59:58;;;;;;;0.25;0.25;;;9.10;90.80;;;;;;5067424;28;20498;-69
2024/01/03 06:02:24;;;;;;;0.00;0.00;;;9.20;90.50;;;;;;5066797;28;20051;-69
2024/01/03 06:04:49;;;;;;;8.82;2.05;;;9.20;90.60;;;;;;5067733;28;20044;-69
2024/01/03 06:07:15;;;;;;;0.00;0.00;;;9.10;90.50;;;;;;5067479;28;20048;-69
2024/01/03 06:09:40;;;;;;;3.75;2.72;;;9.10;90.60;;;;;;5067780;28;20560;-69
2024/01/03 06:12:06;;;;;;;0.00;0.00;;;9.10;90.80;;;;;;5065407;28;20104;-69
2024/01/03 06:14:32;;;;;;;0.00;0.00;;;9.20;90.80;;;;;;5067338;28;20070;-69
2024/01/03 06:16:58;;;;;;;0.00;0.00;;;9.10;90.80;;;;;;5067163;28;20040;-69
2024/01/03 06:19:23;;;;;;;0.00;0.00;;;9.20;90.90;;;;;;5065737;28;20048;-69
2024/01/03 06:21:49;;;;;;;0.22;0.22;;;9.20;91.00;;;;;;5055873;28;20039;-69
2024/01/03 06:24:14;;;;;;;0.00;0.00;;;9.10;90.90;;;;;;5067537;28;20044;-69
2024/01/03 06:26:40;;;;;;;1.20;1.15;;;9.10;90.90;;;;;;5066626;28;20047;-69
2024/01/03 06:29:06;;;;;;;0.03;0.03;;;9.10;90.80;;;;;;5065826;28;20402;-69
2024/01/03 06:31:31;;;;;;;4.97;2.13;;;9.20;90.90;;;;;;5066904;28;20032;-69
2024/01/03 06:33:57;;;;;;;0.00;0.00;;;9.20;90.90;;;;;;5067154;28;20483;-70
2024/01/03 06:36:22;;;;;;;0.00;0.00;;;9.20;90.60;;;;;;5066265;28;20055;-69
2024/01/03 06:38:50;;;;;;;3.92;3.60;;;9.20;90.60;;;;;;5066062;28;20789;-69
2024/01/03 06:41:16;;;;;;;0.00;0.00;;;9.20;90.70;;;;;;5066819;28;20060;-69
2024/01/03 06:43:41;;;;;;;0.00;0.00;;;9.20;90.60;;;;;;5065489;28;20423;-69
2024/01/03 06:46:07;;;;;;;0.00;0.00;;;9.30;90.60;;;;;;5066559;28;20033;-68
2024/01/03 06:48:33;;;;;;;0.00;0.00;;;9.30;90.70;;;;;;5065183;28;20059;-69
2024/01/03 06:51:02;;;;;;;0.52;0.52;;;9.20;90.40;;;;;;5065573;28;20037;-69
2024/01/03 06:53:29;;;;;;;0.00;0.00;;;9.30;90.30;;;;;;5059900;28;20049;-69
2024/01/03 06:55:55;;;;;;;0.10;0.10;;;9.30;90.00;;;;;;5063255;28;20903;-69
2024/01/03 06:58:20;;;;;;;0.10;0.10;;;9.30;89.80;;;;;;5064387;28;20032;-70
2024/01/03 07:00:46;;;;;;;0.13;0.13;;;9.30;89.70;;;;;;5065955;28;20590;-69
2024/01/03 07:03:12;;;;;;;0.05;0.05;;;9.40;89.60;;;;;;5066321;28;20531;-69
2024/01/03 07:05:37;;;;;;;0.00;0.00;;;9.30;89.40;;;;;;5065366;28;20124;-69
2024/01/03 07:08:05;;;;;;;0.00;0.00;;;9.40;89.20;;;;;;5066162;28;20101;-69
2024/01/03 07:10:31;;;;;;;0.00;0.00;;;9.30;89.20;;;;;;5066608;28;20470;-69
2024/01/03 07:13:00;;;;;;;0.00;0.00;;;9.30;88.90;;;;;;5065704;28;20072;-69
2024/01/03 07:15:26;;;;;;;0.00;0.00;;;9.40;89.20;;;;;;5066218;28;20044;-69
2024/01/03 07:17:55;;;;;;;0.80;0.80;;;9.30;89.20;;;;;;5066834;28;20411;-69
2024/01/03 07:20:24;;;;;;;0.35;0.35;;;9.30;89.10;;;;;;5065140;28;20050;-69
2024/01/03 07:22:49;;;;;;;0.00;0.00;;;9.30;89.40;;;;;;5065664;28;20044;-69
2024/01/03 07:25:16;;;;;;;0.00;0.00;;;9.30;89.40;;;;;;5066114;28;20041;-69
2024/01/03 07:27:42;;;;;;;0.00;0.00;;;9.30;89.50;;;;;;5066109;28;20072;-68
2024/01/03 07:30:09;;;;;;;0.00;0.00;;;9.30;89.70;;;;;;5066191;28;20086;-68
2024/01/03 07:32:34;;;;;;;2.42;1.30;;;9.30;90.00;;;;;;5066278;28;20055;-69
2024/01/03 07:35:00;;;;;;;0.00;0.00;;;9.20;90.60;;;;;;5061059;28;20033;-69
2024/01/03 07:37:25;;;;;;;0.10;0.10;;;9.10;90.70;;;;;;5063867;28;20032;-68
2024/01/03 07:39:52;;;;;;;0.28;0.28;;;9.10;90.80;;;;;;5061752;28;20106;-69
2024/01/03 07:42:17;;;;;;;0.00;0.00;;;9.10;90.40;;;;;;5065923;28;20045;-68
2024/01/03 07:44:43;;;;;;;0.55;0.55;;;9.10;90.20;;;;;;5065274;28;20549;-69
2024/01/03 07:47:10;;;;;;;27.77;2.15;;;9.10;90.30;;;;;;5053620;28;20052;-69
2024/01/03 07:49:37;;;;;;;0.28;0.28;;;9.10;90.50;;;;;;5058312;28;20114;-69
2024/01/03 07:52:03;;;;;;;0.00;0.00;;;9.10;90.70;;;;;;5066453;28;20047;-69
2024/01/03 07:54:28;;;;;;;0.10;0.10;;;9.10;90.80;;;;;;5064915;28;20044;-69
2024/01/03 07:56:54;;;;;;;0.65;0.65;;;8.90;91.20;;;;;;5065260;28;20775;-69
2024/01/03 07:59:20;;;;;;;0.00;0.00;;;9.00;91.50;;;;;;5065607;28;20406;-69
2024/01/03 08:01:45;;;;;;;0.00;0.00;;;8.90;91.60;;;;;;5065569;28;20086;-70
2024/01/03 08:04:11;;;;;;;0.00;0.00;;;8.90;91.70;;;;;;5065033;28;20056;-69
2024/01/03 08:06:36;;;;;;;0.00;0.00;;;8.90;92.10;;;;;;5065823;28;20040;-69
2024/01/03 08:09:02;;;;;;;0.35;0.35;;;8.90;92.10;;;;;;5050129;28;20049;-69
2024/01/03 08:11:28;;;;;;;0.00;0.00;;;8.90;92.40;;;;;;5064118;28;20051;-69
2024/01/03 08:13:55;;;;;;;0.10;0.10;;;8.80;92.70;;;;;;5054210;28;20064;-69
2024/01/03 08:16:21;;;;;;;0.00;0.00;;;8.80;92.70;;;;;;5058137;28;20094;-69
2024/01/03 08:18:47;;;;;;;0.00;0.00;;;8.80;92.90;;;;;;5066162;28;20932;-69
2024/01/03 08:21:12;;;;;;;0.00;0.00;;;8.70;92.90;;;;;;5061778;28;20048;-69
2024/01/03 08:23:38;;;;;;;0.00;0.00;;;8.70;93.10;;;;;;5069310;28;20136;-69
2024/01/03 08:26:11;;;;;;;0.85;0.85;;;8.60;92.90;;;;;;5068760;28;20119;-69
2024/01/03 08:28:41;;;;;;;0.00;0.00;;;8.70;92.60;;;;;;5067832;28;20123;-69
2024/01/03 08:31:08;;;;;;;1.10;1.10;;;8.70;92.50;;;;;;5066782;28;20043;-68
2024/01/03 08:33:37;;;;;;;0.00;0.00;;;8.80;92.10;;;;;;5065663;28;20063;-69
2024/01/03 08:36:03;;;;;;;0.10;0.10;;;8.80;91.80;;;;;;5067931;28;20053;-69
2024/01/03 08:38:29;;;;;;;0.00;0.00;;;8.90;91.90;;;;;;5067266;28;20051;-69
2024/01/03 08:40:54;;;;;;;0.10;0.10;;;8.80;91.50;;;;;;5066640;28;20530;-69
2024/01/03 08:43:20;;;;;;;0.00;0.00;;;8.90;91.70;;;;;;5067342;28;20124;-69
2024/01/03 08:45:45;;;;;;;2.25;2.05;;;8.80;91.50;;;;;;5067295;28;20045;-70
2024/01/03 08:48:11;;;;;;;0.10;0.10;;;8.80;91.50;;;;;;5049811;28;20052;-70
2024/01/03 08:50:36;;;;;;;0.55;0.55;;;8.90;91.60;;;;;;5066272;28;20082;-69
2024/01/03 08:53:02;;;;;;;0.15;0.15;;;8.80;91.50;;;;;;5067692;28;20048;-69
2024/01/03 08:55:28;;;;;;;0.10;0.10;;;8.90;91.50;;;;;;5067397;28;20045;-69
2024/01/03 08:57:56;;;;;;;0.10;0.10;;;8.90;91.50;;;;;;5068628;28;20041;-69
2024/01/03 09:00:24;;;;;;;0.05;0.05;;;8.90;91.50;;;;;;5066408;28;20045;-69
2024/01/03 09:02:50;;;;;;;0.35;0.35;;;8.90;91.40;;;;;;5067763;28;20045;-70
2024/01/03 09:05:16;;;;;;;0.00;0.00;;;8.90;91.20;;;;;;5067564;28;20495;-70
2024/01/03 09:07:44;;;;;;;0.00;0.00;;;9.10;90.80;;;;;;5068375;28;20051;-70
2024/01/03 09:10:10;;;;;;;0.17;0.17;;;9.00;90.50;;;;;;5067131;28;20041;-69
2024/01/03 09:12:36;;;;;;;0.00;0.00;;;9.10;90.20;;;;;;5068348;28;20047;-69
2024/01/03 09:15:01;;;;;;;0.05;0.05;;;9.10;90.30;;;;;;5068620;28;20052;-69
2024/01/03 09:17:27;;;;;;;0.00;0.00;;;9.10;89.70;;;;;;5066392;28;20448;-69
2024/01/03 09:19:52;;;;;;;2.60;1.85;;;9.20;89.60;;;;;;5067700;28;20028;-69
2024/01/03 09:22:18;;;;;;;0.55;0.55;;;9.10;89.10;;;;;;5065934;28;20115;-70
2024/01/03 09:24:44;;;;;;;0.00;0.00;;;9.10;89.50;;;;;;5068044;28;20494;-69
2024/01/03 09:27:09;;;;;;;0.00;0.00;;;9.10;89.20;;;;;;5067421;28;20043;-69
2024/01/03 09:29:35;;;;;;;0.00;0.00;;;9.20;88.90;;;;;;5058917;28;20041;-69
2024/01/03 09:32:00;;;;;;;0.00;0.00;;;9.10;88.90;;;;;;5060366;28;20033;-70
2024/01/03 09:34:26;;;;;;;0.00;0.00;;;9.20;89.00;;;;;;5066543;28;20758;-69
2024/01/03 09:36:53;;;;;;;0.25;0.25;;;9.20;89.00;;;;;;5063076;28;20054;-69
2024/01/03 09:39:19;;;;;;;0.00;0.00;;;9.10;89.10;;;;;;5066773;28;20052;-69
2024/01/03 09:41:46;;;;;;;0.00;0.00;;;9.10;89.00;;;;;;5067465;28;20044;-69
2024/01/03 09:44:12;;;;;;;0.45;0.45;;;9.20;89.10;;;;;;5075380;28;20064;-69
2024/01/03 09:46:37;;;;;;;0.15;0.15;;;9.20;89.20;;;;;;5087790;28;20056;-69
2024/01/03 09:49:03;;;;;;;0.25;0.25;;;9.30;89.00;;;;;;5066766;28;20044;-69
2024/01/03 09:51:30;;;;;;;0.05;0.05;;;9.30;89.20;;;;;;5075039;28;20048;-69
2024/01/03 09:53:56;;;;;;;0.10;0.10;;;9.30;89.10;;;;;;5076721;28;20036;-70
2024/01/03 09:56:22;;;;;;;0.00;0.00;;;9.30;89.00;;;;;;5066707;28;20159;-69
2024/01/03 09:58:48;;;;;;;0.10;0.10;;;9.30;88.20;;;;;;5067057;28;20173;-70
2024/01/03 10:01:13;;;;;;;0.00;0.00;;;9.50;88.00;;;;;;5064033;28;20052;-69
2024/01/03 10:03:39;;;;;;;0.22;0.22;;;9.40;87.90;;;;;;5067564;28;20063;-69
2024/01/03 10:06:06;;;;;;;0.00;0.00;;;9.40;87.90;;;;;;5065714;28;20064;-70
2024/01/03 10:08:31;;;;;;;0.00;0.00;;;9.50;87.80;;;;;;5064275;28;20093;-69
2024/01/03 10:10:57;;;;;;;0.00;0.00;;;9.40;87.60;;;;;;5067019;28;20407;-69
2024/01/03 10:13:28;;;;;;;0.03;0.03;;;9.40;87.80;;;;;;5064459;28;20040;-69
2024/01/03 10:15:54;;;;;;;0.10;0.10;;;9.40;88.00;;;;;;5062328;28;20059;-69
2024/01/03 10:18:21;;;;;;;2.65;1.85;;;9.40;88.20;;;;;;5066654;28;20409;-69
2024/01/03 10:20:47;;;;;;;1.13;1.13;;;9.40;88.30;;;;;;5065977;28;20048;-69
2024/01/03 10:23:14;;;;;;;0.00;0.00;;;9.40;88.70;;;;;;5059516;28;20071;-70
2024/01/03 10:25:42;;;;;;;0.00;0.00;;;9.40;88.80;;;;;;5066268;28;20695;-70
2024/01/03 10:28:15;;;;;;;0.00;0.00;;;9.50;88.90;;;;;;5066715;28;20044;-70
2024/01/03 10:30:41;;;;;;;0.00;0.00;;;9.50;89.00;;;;;;5058754;28;20105;-69
2024/01/03 10:33:08;;;;;;;0.10;0.10;;;9.50;89.10;;;;;;5065128;28;20036;-69
2024/01/03 10:35:39;;;;;;;0.00;0.00;;;9.60;89.20;;;;;;5066631;28;20177;-69
2024/01/03 10:38:05;;;;;;;1.05;1.05;;;9.60;89.30;;;;;;5065969;28;20032;-70
2024/01/03 10:40:32;;;;;;;0.05;0.05;;;9.60;89.40;;;;;;5066036;28;20500;-69
2024/01/03 10:42:59;;;;;;;0.00;0.00;;;9.60;89.50;;;;;;5065239;28;20181;-69
2024/01/03 10:45:26;;;;;;;0.00;0.00;;;9.60;89.80;;;;;;5065515;28;20387;-69
2024/01/03 10:47:52;;;;;;;0.00;0.00;;;9.60;89.60;;;;;;5066439;28;20409;-70
2024/01/03 10:50:18;;;;;;;0.00;0.00;;;9.60;89.60;;;;;;5065318;28;20037;-69
2024/01/03 10:52:45;;;;;;;0.00;0.00;;;9.70;89.50;;;;;;5066114;28;20055;-69
2024/01/03 10:55:19;;;;;;;0.00;0.00;;;9.60;89.70;;;;;;5065648;28;20747;-68
2024/01/03 10:58:00;;;;;;;0.00;0.00;;;9.50;89.80;;;;;;5065029;28;20048;-68
2024/01/03 11:00:41;;;;;;;0.93;0.93;;;9.60;90.00;;;;;;5053427;28;21063;-69
2024/01/03 11:03:15;;;;;;;0.00;0.00;;;9.60;90.00;;;;;;5063921;28;20045;-69
2024/01/03 11:06:03;;;;;;;0.00;0.00;;;9.50;90.10;;;;;;5066280;28;20049;-69
2024/01/03 11:08:46;;;;;;;0.00;0.00;;;9.60;90.40;;;;;;5064929;28;20040;-69
2024/01/03 11:11:14;;;;;;;0.05;0.05;;;9.60;90.40;;;;;;5065311;28;20410;-69
2024/01/03 11:13:44;;;;;;;0.00;0.00;;;9.60;90.20;;;;;;5065472;28;20658;-69
2024/01/03 11:16:34;;;;;;;1.65;1.55;;;9.70;90.10;;;;;;5065938;28;20102;-69
2024/01/03 11:19:00;;;;;;;0.20;0.20;;;9.60;90.00;;;;;;5065625;28;20041;-69
2024/01/03 11:21:30;;;;;;;0.00;0.00;;;9.60;89.80;;;;;;5064268;28;20080;-69
2024/01/03 11:23:56;;;;;;;0.08;0.08;;;9.60;89.80;;;;;;5064889;28;20503;-69
2024/01/03 11:26:53;;;;;;;0.00;0.00;;;9.60;89.50;;;;;;5064213;28;20048;-69
2024/01/03 11:29:48;;;;;;;0.00;0.00;;;9.70;89.60;;;;;;5063544;28;20048;-69
2024/01/03 11:32:29;;;;;;;0.25;0.25;;;9.60;89.60;;;;;;5046173;28;20076;-69
2024/01/03 11:34:55;;;;;;;0.00;0.00;;;9.60;89.50;;;;;;5048722;28;20094;-69
2024/01/03 11:37:35;;;;;;;0.00;0.00;;;9.70;88.80;;;;;;5042859;28;20053;-69
2024/01/03 11:40:02;;;;;;;0.28;0.28;;;9.70;88.80;;;;;;5046060;28;20178;-69
2024/01/03 11:42:41;;;;;;;0.10;0.10;;;9.70;89.00;;;;;;5061622;28;20044;-67
2024/01/03 11:45:11;;;;;;;0.77;0.73;;;9.70;89.00;;;;;;5066272;28;20079;-68
2024/01/03 11:47:46;;;;;;;0.03;0.03;;;9.70;89.20;;;;;;5069303;28;20102;-68
2024/01/03 11:50:14;;;;;;;0.00;0.00;;;9.70;89.30;;;;;;5069067;28;20040;-68
2024/01/03 11:52:42;;;;;;;0.00;0.00;;;9.70;89.40;;;;;;5063551;28;20202;-68
2024/01/03 11:55:16;;;;;;;0.00;0.00;;;9.80;89.30;;;;;;5066452;28;20047;-68
2024/01/03 11:57:47;;;;;;;0.00;0.00;;;9.70;89.20;;;;;;5069258;28;20044;-67
2024/01/03 12:00:20;;;;;;;0.10;0.10;;;9.70;89.20;;;;;;5068711;28;20102;-68
2024/01/03 12:02:56;;;;;;;0.52;0.52;;;9.80;89.20;;;;;;5069304;28;20733;-68
2024/01/03 12:05:24;;;;;;;0.00;0.00;;;9.80;89.20;;;;;;5056465;28;20044;-67
2024/01/03 12:07:51;;;;;;;4.18;0.90;;;9.80;88.90;;;;;;5041982;28;20685;-65
2024/01/03 12:10:18;;;;;;;0.00;0.00;;;9.80;89.20;;;;;;5068870;28;20055;-69
2024/01/03 12:12:45;;;;;;;0.00;0.00;;;9.80;89.20;;;;;;5067699;28;20052;-69
2024/01/03 12:15:28;;;;;;;0.55;0.55;;;9.80;89.40;;;;;;5053748;28;20064;-69
2024/01/03 12:18:02;;;;;;;0.00;0.00;;;9.90;89.10;;;;;;5068334;28;20056;-70
2024/01/03 12:20:28;;;;;;;0.25;0.25;;;9.80;89.30;;;;;;5068099;28;20043;-69
2024/01/03 12:22:53;;;;;;;0.00;0.00;;;9.80;89.40;;;;;;5067907;28;20406;-68
2024/01/03 12:25:26;;;;;;;0.00;0.00;;;9.70;89.60;;;;;;5065552;28;20764;-69
2024/01/03 12:27:58;;;;;;;0.30;0.30;;;9.70;89.90;;;;;;5058253;28;20195;-69
2024/01/03 12:30:24;;;;;;;0.73;0.22;;;9.80;89.60;;;;;;5065131;28;20487;-69
2024/01/03 12:32:51;;;;;;;0.00;0.00;;;9.70;89.60;;;;;;5063251;28;20036;-69
2024/01/03 12:35:16;;;;;;;0.10;0.10;;;9.70;89.50;;;;;;5063124;28;20044;-69
2024/01/03 12:37:49;;;;;;;0.00;0.00;;;9.70;89.40;;;;;;5068231;28;20047;-69
2024/01/03 12:40:16;;;;;;;0.40;0.40;;;9.70;89.80;;;;;;5066379;28;20128;-69
2024/01/03 12:42:43;;;;;;;0.22;0.22;;;9.70;89.70;;;;;;5067380;28;20063;-69
2024/01/03 12:45:10;;;;;;;0.20;0.20;;;9.80;89.70;;;;;;5067248;28;20048;-69
2024/01/03 12:47:36;;;;;;;0.00;0.00;;;9.70;89.30;;;;;;5067738;28;20086;-69
2024/01/03 12:50:02;;;;;;;0.98;0.95;;;9.70;89.20;;;;;;5067967;28;20395;-69
2024/01/03 12:52:29;;;;;;;0.00;0.00;;;9.70;89.40;;;;;;5068250;28;20055;-69
2024/01/03 12:54:55;;;;;;;0.00;0.00;;;9.60;89.50;;;;;;5068948;28;20045;-70
2024/01/03 12:57:21;;;;;;;0.35;0.35;;;9.60;89.40;;;;;;5067929;28;20080;-69